N19UB KDEN-KLAX
Flight info
| Callsign | N19UB |
|---|---|
| Flight time | 2h 9m |
| Altitude | 40000 |
| Route | BAYLR6 TEHRU JASSE Q90 DNERO ANJLL4 |
| Aircraft | C25C/M-SDE2E3FGHRWXY/LB1 |
Departure
| Time | 2026-04-25 22:26 |
|---|---|
| Airport | Denver International Airport (KDEN) |
Arrival
| Time | 2026-04-26 00:36 |
|---|---|
| Airport | Los Angeles International Airport (KLAX) |
| Time | Latitude | Longitude | Altitude | Speed | Heading |
|---|---|---|---|---|---|
| 2026-04-25 22:15 | 39.85101 | -104.68728 | 5357 ft | 0 kts | 357° |
| 2026-04-25 22:23 | 39.85104 | -104.68729 | 5357 ft | 3 kts | 357° |
| 2026-04-25 22:23 | 39.85153 | -104.68735 | 5358 ft | 11 kts | 344° |
| 2026-04-25 22:23 | 39.85200 | -104.68837 | 5355 ft | 16 kts | 269° |
| 2026-04-25 22:24 | 39.85197 | -104.69000 | 5348 ft | 20 kts | 270° |
| 2026-04-25 22:24 | 39.85197 | -104.69192 | 5340 ft | 23 kts | 270° |
| 2026-04-25 22:24 | 39.85201 | -104.69409 | 5337 ft | 25 kts | 271° |
| 2026-04-25 22:24 | 39.85205 | -104.69596 | 5345 ft | 15 kts | 284° |
| 2026-04-25 22:25 | 39.85260 | -104.69661 | 5346 ft | 0 kts | 359° |
| 2026-04-25 22:25 | 39.85261 | -104.69661 | 5346 ft | 3 kts | 359° |
| 2026-04-25 22:25 | 39.85634 | -104.69656 | 5357 ft | 104 kts | 1° |
| 2026-04-25 22:26 | 39.86649 | -104.69649 | 5465 ft | 178 kts | 0° |
| 2026-04-25 22:26 | 39.87970 | -104.69667 | 6174 ft | 191 kts | 4° |
| 2026-04-25 22:26 | 39.89272 | -104.69976 | 7115 ft | 192 kts | 339° |
| 2026-04-25 22:26 | 39.90305 | -104.71108 | 7904 ft | 204 kts | 304° |
| 2026-04-25 22:27 | 39.90823 | -104.72755 | 8924 ft | 191 kts | 276° |
| 2026-04-25 22:27 | 39.90750 | -104.74498 | 9619 ft | 201 kts | 250° |
| 2026-04-25 22:27 | 39.90046 | -104.76124 | 10234 ft | 212 kts | 232° |
| 2026-04-25 22:27 | 39.89276 | -104.77903 | 10843 ft | 242 kts | 243° |
| 2026-04-25 22:28 | 39.88530 | -104.80088 | 11247 ft | 289 kts | 244° |
| 2026-04-25 22:28 | 39.87566 | -104.82608 | 11665 ft | 330 kts | 242° |
| 2026-04-25 22:28 | 39.86439 | -104.85336 | 12108 ft | 345 kts | 241° |
| 2026-04-25 22:28 | 39.85340 | -104.88037 | 12593 ft | 331 kts | 242° |
| 2026-04-25 22:29 | 39.84273 | -104.90696 | 13077 ft | 333 kts | 243° |
| 2026-04-25 22:29 | 39.83206 | -104.93385 | 13576 ft | 335 kts | 243° |
| 2026-04-25 22:29 | 39.82114 | -104.96072 | 14034 ft | 337 kts | 243° |
| 2026-04-25 22:30 | 39.79928 | -105.01488 | 14995 ft | 339 kts | 243° |
| 2026-04-25 22:30 | 39.78840 | -105.04202 | 15462 ft | 339 kts | 243° |
| 2026-04-25 22:30 | 39.77737 | -105.06916 | 15930 ft | 338 kts | 243° |
| 2026-04-25 22:30 | 39.77014 | -105.08714 | 16246 ft | 338 kts | 243° |
| 2026-04-25 22:31 | 39.75560 | -105.12292 | 16871 ft | 337 kts | 243° |
| 2026-04-25 22:31 | 39.74475 | -105.14989 | 17363 ft | 337 kts | 243° |
| 2026-04-25 22:31 | 39.73378 | -105.17676 | 17865 ft | 336 kts | 243° |
| 2026-04-25 22:31 | 39.72290 | -105.20371 | 18343 ft | 335 kts | 243° |
| 2026-04-25 22:32 | 39.71200 | -105.23037 | 18771 ft | 335 kts | 243° |
| 2026-04-25 22:32 | 39.70119 | -105.25711 | 19214 ft | 334 kts | 243° |
| 2026-04-25 22:32 | 39.69036 | -105.28376 | 19668 ft | 334 kts | 243° |
| 2026-04-25 22:32 | 39.67941 | -105.31041 | 20112 ft | 334 kts | 243° |
| 2026-04-25 22:33 | 39.66860 | -105.33710 | 20577 ft | 335 kts | 243° |
| 2026-04-25 22:33 | 39.65767 | -105.36379 | 21028 ft | 335 kts | 243° |
| 2026-04-25 22:33 | 39.64680 | -105.39048 | 21507 ft | 335 kts | 243° |
| 2026-04-25 22:33 | 39.63579 | -105.41730 | 21998 ft | 335 kts | 243° |
| 2026-04-25 22:34 | 39.62492 | -105.44405 | 22497 ft | 335 kts | 243° |
| 2026-04-25 22:34 | 39.61391 | -105.47078 | 23012 ft | 335 kts | 243° |
| 2026-04-25 22:34 | 39.60304 | -105.49738 | 23648 ft | 335 kts | 243° |
| 2026-04-25 22:34 | 39.59204 | -105.52414 | 24441 ft | 337 kts | 244° |
| 2026-04-25 22:35 | 39.58119 | -105.55063 | 25343 ft | 337 kts | 244° |
| 2026-04-25 22:35 | 39.57014 | -105.57746 | 26174 ft | 338 kts | 245° |
| 2026-04-25 22:35 | 39.55905 | -105.60449 | 26945 ft | 340 kts | 244° |
| 2026-04-25 22:35 | 39.54934 | -105.63239 | 27720 ft | 340 kts | 254° |
| 2026-04-25 22:36 | 39.54189 | -105.66159 | 28303 ft | 344 kts | 251° |
| 2026-04-25 22:36 | 39.53333 | -105.69047 | 29126 ft | 342 kts | 251° |
| 2026-04-25 22:36 | 39.52532 | -105.71912 | 30033 ft | 338 kts | 251° |
| 2026-04-25 22:36 | 39.51758 | -105.74768 | 30800 ft | 334 kts | 252° |
| 2026-04-25 22:37 | 39.50976 | -105.77590 | 31537 ft | 330 kts | 251° |
| 2026-04-25 22:37 | 39.50203 | -105.80370 | 32217 ft | 327 kts | 251° |
| 2026-04-25 22:37 | 39.49435 | -105.83125 | 32906 ft | 324 kts | 251° |
| 2026-04-25 22:37 | 39.48678 | -105.85863 | 33516 ft | 321 kts | 251° |
| 2026-04-25 22:38 | 39.47917 | -105.88568 | 34065 ft | 319 kts | 251° |
| 2026-04-25 22:38 | 39.47165 | -105.91270 | 34553 ft | 318 kts | 251° |
| 2026-04-25 22:38 | 39.46426 | -105.93930 | 34993 ft | 317 kts | 251° |
| 2026-04-25 22:38 | 39.45675 | -105.96621 | 35444 ft | 318 kts | 252° |
| 2026-04-25 22:39 | 39.44920 | -105.99309 | 35876 ft | 318 kts | 252° |
| 2026-04-25 22:39 | 39.44169 | -106.01988 | 36385 ft | 316 kts | 252° |
| 2026-04-25 22:39 | 39.43422 | -106.04665 | 36843 ft | 316 kts | 252° |
| 2026-04-25 22:39 | 39.42669 | -106.07338 | 37325 ft | 315 kts | 252° |
| 2026-04-25 22:40 | 39.41919 | -106.10003 | 37775 ft | 316 kts | 252° |
| 2026-04-25 22:40 | 39.41174 | -106.12682 | 38351 ft | 314 kts | 253° |
| 2026-04-25 22:40 | 39.40425 | -106.15334 | 38739 ft | 315 kts | 252° |
| 2026-04-25 22:40 | 39.39671 | -106.17997 | 39039 ft | 316 kts | 252° |
| 2026-04-25 22:41 | 39.38915 | -106.20668 | 39374 ft | 316 kts | 252° |
| 2026-04-25 22:41 | 39.38166 | -106.23338 | 39607 ft | 320 kts | 252° |
| 2026-04-25 22:41 | 39.37397 | -106.26052 | 39892 ft | 327 kts | 252° |
| 2026-04-25 22:41 | 39.36879 | -106.27890 | 39925 ft | 333 kts | 252° |
| 2026-04-25 22:42 | 39.35246 | -106.33651 | 39953 ft | 349 kts | 252° |
| 2026-04-25 22:42 | 39.33544 | -106.39636 | 39965 ft | 361 kts | 252° |
| 2026-04-25 22:43 | 39.31789 | -106.45812 | 39944 ft | 371 kts | 252° |
| 2026-04-25 22:43 | 39.29983 | -106.52137 | 39913 ft | 380 kts | 252° |
| 2026-04-25 22:44 | 39.28170 | -106.58466 | 39870 ft | 370 kts | 252° |
| 2026-04-25 22:44 | 39.26407 | -106.64616 | 39831 ft | 361 kts | 252° |
| 2026-04-25 22:45 | 39.24545 | -106.70556 | 39883 ft | 356 kts | 247° |
| 2026-04-25 22:45 | 39.22005 | -106.76009 | 39908 ft | 355 kts | 239° |
| 2026-04-25 22:46 | 39.19063 | -106.81105 | 39908 ft | 360 kts | 238° |
| 2026-04-25 22:46 | 39.16034 | -106.86365 | 39918 ft | 370 kts | 238° |
| 2026-04-25 22:47 | 39.14478 | -106.89036 | 39694 ft | 375 kts | 238° |
| 2026-04-25 22:47 | 39.12923 | -106.91741 | 39706 ft | 378 kts | 238° |
| 2026-04-25 22:47 | 39.09741 | -106.97189 | 39697 ft | 383 kts | 238° |
| 2026-04-25 22:48 | 39.06570 | -107.02721 | 39690 ft | 385 kts | 238° |
| 2026-04-25 22:48 | 39.03407 | -107.08090 | 39710 ft | 368 kts | 238° |
| 2026-04-25 22:49 | 39.00429 | -107.13217 | 39704 ft | 354 kts | 238° |
| 2026-04-25 22:49 | 38.97494 | -107.18259 | 39705 ft | 353 kts | 238° |
| 2026-04-25 22:50 | 38.94542 | -107.23311 | 39698 ft | 353 kts | 238° |
| 2026-04-25 22:50 | 38.91586 | -107.28368 | 39707 ft | 355 kts | 238° |
| 2026-04-25 22:51 | 38.88618 | -107.33434 | 39712 ft | 356 kts | 238° |
| 2026-04-25 22:51 | 38.85650 | -107.38470 | 39713 ft | 357 kts | 238° |
| 2026-04-25 22:52 | 38.82663 | -107.43570 | 39717 ft | 358 kts | 238° |
| 2026-04-25 22:52 | 38.80144 | -107.47841 | 39714 ft | 359 kts | 238° |
| 2026-04-25 22:53 | 38.76646 | -107.53767 | 39720 ft | 359 kts | 238° |
| 2026-04-25 22:53 | 38.73632 | -107.58879 | 39716 ft | 360 kts | 238° |
| 2026-04-25 22:54 | 38.70607 | -107.63988 | 39711 ft | 360 kts | 238° |
| 2026-04-25 22:54 | 38.67583 | -107.69090 | 39709 ft | 359 kts | 238° |
| 2026-04-25 22:55 | 38.64562 | -107.74176 | 39697 ft | 358 kts | 238° |
| 2026-04-25 22:55 | 38.61552 | -107.79232 | 39704 ft | 357 kts | 237° |
| 2026-04-25 22:56 | 38.60062 | -107.81773 | 39864 ft | 355 kts | 238° |
| 2026-04-25 22:56 | 38.58553 | -107.84278 | 39877 ft | 356 kts | 237° |
| 2026-04-25 22:56 | 38.55564 | -107.89282 | 39877 ft | 356 kts | 238° |
| 2026-04-25 22:57 | 38.52561 | -107.94317 | 39878 ft | 356 kts | 237° |
| 2026-04-25 22:57 | 38.49555 | -107.99335 | 39878 ft | 356 kts | 237° |
| 2026-04-25 22:58 | 38.46551 | -108.04354 | 39853 ft | 355 kts | 237° |
| 2026-04-25 22:58 | 38.43546 | -108.09358 | 39820 ft | 356 kts | 237° |
| 2026-04-25 22:59 | 38.40542 | -108.14353 | 39783 ft | 354 kts | 237° |
| 2026-04-25 22:59 | 38.37556 | -108.19325 | 39772 ft | 353 kts | 237° |
| 2026-04-25 23:00 | 38.34562 | -108.24282 | 39739 ft | 353 kts | 237° |
| 2026-04-25 23:00 | 38.31564 | -108.29255 | 39718 ft | 354 kts | 238° |
| 2026-04-25 23:01 | 38.28556 | -108.34225 | 39725 ft | 355 kts | 237° |
| 2026-04-25 23:01 | 38.25560 | -108.39171 | 39728 ft | 355 kts | 237° |
| 2026-04-25 23:02 | 38.22549 | -108.44135 | 39719 ft | 356 kts | 237° |
| 2026-04-25 23:02 | 38.19526 | -108.49117 | 39720 ft | 356 kts | 237° |
| 2026-04-25 23:03 | 38.16516 | -108.54058 | 39724 ft | 355 kts | 237° |
| 2026-04-25 23:03 | 38.13505 | -108.59001 | 39712 ft | 355 kts | 237° |
| 2026-04-25 23:04 | 38.10978 | -108.63143 | 39710 ft | 355 kts | 237° |
| 2026-04-25 23:04 | 38.07457 | -108.68904 | 39710 ft | 355 kts | 237° |
| 2026-04-25 23:05 | 38.04427 | -108.73853 | 39686 ft | 355 kts | 237° |
| 2026-04-25 23:05 | 38.01400 | -108.78792 | 39686 ft | 354 kts | 237° |
| 2026-04-25 23:06 | 37.98378 | -108.83714 | 39690 ft | 353 kts | 237° |
| 2026-04-25 23:06 | 37.95367 | -108.88617 | 39687 ft | 352 kts | 237° |
| 2026-04-25 23:07 | 37.92357 | -108.93501 | 39697 ft | 352 kts | 237° |
| 2026-04-25 23:07 | 37.89344 | -108.98388 | 39693 ft | 352 kts | 237° |
| 2026-04-25 23:08 | 37.86325 | -109.03273 | 39693 ft | 352 kts | 237° |
| 2026-04-25 23:08 | 37.83308 | -109.08148 | 39693 ft | 352 kts | 237° |
| 2026-04-25 23:09 | 37.80287 | -109.13027 | 39689 ft | 352 kts | 237° |
| 2026-04-25 23:09 | 37.77269 | -109.17893 | 39722 ft | 352 kts | 237° |
| 2026-04-25 23:10 | 37.74245 | -109.22761 | 39742 ft | 352 kts | 237° |
| 2026-04-25 23:10 | 37.71224 | -109.27615 | 39777 ft | 351 kts | 237° |
| 2026-04-25 23:11 | 37.68200 | -109.32467 | 39806 ft | 351 kts | 237° |
| 2026-04-25 23:11 | 37.65174 | -109.37318 | 39837 ft | 352 kts | 237° |
| 2026-04-25 23:12 | 37.62145 | -109.42166 | 39850 ft | 352 kts | 237° |
| 2026-04-25 23:12 | 37.59112 | -109.47012 | 39852 ft | 352 kts | 236° |
| 2026-04-25 23:13 | 37.56081 | -109.51846 | 39853 ft | 352 kts | 236° |
| 2026-04-25 23:13 | 37.53045 | -109.56682 | 39851 ft | 352 kts | 236° |
| 2026-04-25 23:14 | 37.50024 | -109.61485 | 39822 ft | 351 kts | 236° |
| 2026-04-25 23:14 | 37.47055 | -109.66204 | 39790 ft | 351 kts | 236° |
| 2026-04-25 23:15 | 37.44037 | -109.70987 | 39634 ft | 351 kts | 236° |
| 2026-04-25 23:15 | 37.40990 | -109.75819 | 39668 ft | 350 kts | 236° |
| 2026-04-25 23:16 | 37.37990 | -109.80559 | 39664 ft | 349 kts | 236° |
| 2026-04-25 23:16 | 37.34974 | -109.85322 | 39660 ft | 348 kts | 236° |
| 2026-04-25 23:17 | 37.29581 | -109.93828 | 39654 ft | 347 kts | 236° |
| 2026-04-25 23:17 | 37.17485 | -110.12808 | 39668 ft | 348 kts | 236° |
| 2026-04-25 23:18 | 37.05345 | -110.31756 | 39661 ft | 348 kts | 236° |
| 2026-04-25 23:18 | 36.98914 | -110.41749 | 39667 ft | 348 kts | 236° |
| 2026-04-25 23:19 | 36.88896 | -110.57263 | 39684 ft | 350 kts | 235° |
| 2026-04-25 23:19 | 36.76670 | -110.76083 | 39688 ft | 348 kts | 235° |
| 2026-04-25 23:20 | 36.64487 | -110.94744 | 39692 ft | 346 kts | 235° |
| 2026-04-25 23:20 | 36.52302 | -111.13300 | 39704 ft | 346 kts | 235° |
| 2026-04-25 23:21 | 36.47802 | -111.20130 | 39715 ft | 346 kts | 234° |
| 2026-04-25 23:21 | 36.44729 | -111.24783 | 39715 ft | 346 kts | 234° |
| 2026-04-25 23:22 | 36.41675 | -111.29403 | 39727 ft | 346 kts | 235° |
| 2026-04-25 23:23 | 36.37376 | -111.35893 | 39730 ft | 346 kts | 234° |
| 2026-04-25 23:23 | 36.34319 | -111.40505 | 39731 ft | 346 kts | 234° |
| 2026-04-25 23:24 | 36.31257 | -111.45113 | 39734 ft | 346 kts | 234° |
| 2026-04-25 23:24 | 36.28168 | -111.49764 | 39746 ft | 353 kts | 234° |
| 2026-04-25 23:25 | 36.25016 | -111.54496 | 39766 ft | 360 kts | 234° |
| 2026-04-25 23:25 | 36.21814 | -111.59299 | 39766 ft | 365 kts | 234° |
| 2026-04-25 23:26 | 36.18561 | -111.64167 | 39765 ft | 369 kts | 234° |
| 2026-04-25 23:26 | 36.15831 | -111.68247 | 39756 ft | 369 kts | 234° |
| 2026-04-25 23:27 | 36.12597 | -111.73080 | 39764 ft | 360 kts | 234° |
| 2026-04-25 23:27 | 36.09440 | -111.77831 | 39790 ft | 354 kts | 237° |
| 2026-04-25 23:28 | 36.06817 | -111.82920 | 39847 ft | 349 kts | 243° |
| 2026-04-25 23:28 | 36.04840 | -111.88375 | 39883 ft | 347 kts | 249° |
| 2026-04-25 23:29 | 36.03068 | -111.93915 | 39925 ft | 346 kts | 249° |
| 2026-04-25 23:29 | 36.01307 | -111.99406 | 39953 ft | 342 kts | 249° |
| 2026-04-25 23:30 | 35.99561 | -112.04867 | 39979 ft | 342 kts | 249° |
| 2026-04-25 23:30 | 35.97808 | -112.10323 | 39980 ft | 342 kts | 249° |
| 2026-04-25 23:31 | 35.96050 | -112.15792 | 39988 ft | 342 kts | 249° |
| 2026-04-25 23:31 | 35.94290 | -112.21257 | 39988 ft | 343 kts | 249° |
| 2026-04-25 23:32 | 35.92536 | -112.26688 | 39986 ft | 343 kts | 249° |
| 2026-04-25 23:32 | 35.90769 | -112.32147 | 39964 ft | 343 kts | 248° |
| 2026-04-25 23:33 | 35.89010 | -112.37574 | 39941 ft | 343 kts | 249° |
| 2026-04-25 23:33 | 35.87245 | -112.43017 | 39921 ft | 343 kts | 249° |
| 2026-04-25 23:34 | 35.85472 | -112.48470 | 39856 ft | 343 kts | 248° |
| 2026-04-25 23:34 | 35.83694 | -112.53927 | 39857 ft | 343 kts | 248° |
| 2026-04-25 23:35 | 35.81916 | -112.59369 | 39851 ft | 343 kts | 248° |
| 2026-04-25 23:35 | 35.80138 | -112.64807 | 39849 ft | 343 kts | 248° |
| 2026-04-25 23:36 | 35.78353 | -112.70257 | 39843 ft | 343 kts | 248° |
| 2026-04-25 23:36 | 35.76582 | -112.75657 | 39834 ft | 342 kts | 248° |
| 2026-04-25 23:37 | 35.74787 | -112.81114 | 39841 ft | 342 kts | 248° |
| 2026-04-25 23:37 | 35.73012 | -112.86502 | 39832 ft | 342 kts | 248° |
| 2026-04-25 23:38 | 35.71221 | -112.91929 | 39834 ft | 342 kts | 248° |
| 2026-04-25 23:38 | 35.69429 | -112.97353 | 39835 ft | 342 kts | 248° |
| 2026-04-25 23:39 | 35.67628 | -113.02785 | 39819 ft | 343 kts | 248° |
| 2026-04-25 23:39 | 35.65828 | -113.08211 | 39804 ft | 342 kts | 248° |
| 2026-04-25 23:40 | 35.64041 | -113.13587 | 39805 ft | 341 kts | 247° |
| 2026-04-25 23:40 | 35.62242 | -113.18989 | 39804 ft | 341 kts | 248° |
| 2026-04-25 23:41 | 35.60444 | -113.24383 | 39792 ft | 341 kts | 247° |
| 2026-04-25 23:41 | 35.58643 | -113.29772 | 39792 ft | 341 kts | 247° |
| 2026-04-25 23:42 | 35.56839 | -113.35157 | 39789 ft | 340 kts | 247° |
| 2026-04-25 23:42 | 35.55036 | -113.40533 | 39777 ft | 340 kts | 247° |
| 2026-04-25 23:43 | 35.53229 | -113.45910 | 39772 ft | 340 kts | 247° |
| 2026-04-25 23:43 | 35.51422 | -113.51282 | 39756 ft | 341 kts | 247° |
| 2026-04-25 23:44 | 35.49610 | -113.56657 | 39756 ft | 341 kts | 247° |
| 2026-04-25 23:44 | 35.47797 | -113.62023 | 39767 ft | 341 kts | 247° |
| 2026-04-25 23:45 | 35.45975 | -113.67405 | 39770 ft | 342 kts | 247° |
| 2026-04-25 23:45 | 35.44151 | -113.72787 | 39794 ft | 341 kts | 247° |
| 2026-04-25 23:46 | 35.42327 | -113.78162 | 39805 ft | 342 kts | 247° |
| 2026-04-25 23:46 | 35.40498 | -113.83537 | 39827 ft | 342 kts | 246° |
| 2026-04-25 23:47 | 35.38668 | -113.88904 | 39844 ft | 342 kts | 246° |
| 2026-04-25 23:47 | 35.36835 | -113.94270 | 39858 ft | 341 kts | 246° |
| 2026-04-25 23:48 | 35.35005 | -113.99625 | 39863 ft | 341 kts | 246° |
| 2026-04-25 23:48 | 35.33154 | -114.05026 | 39855 ft | 348 kts | 247° |
| 2026-04-25 23:49 | 35.31262 | -114.10545 | 39825 ft | 355 kts | 247° |
| 2026-04-25 23:49 | 35.29343 | -114.16117 | 39815 ft | 358 kts | 246° |
| 2026-04-25 23:50 | 35.27446 | -114.21643 | 39794 ft | 348 kts | 246° |
| 2026-04-25 23:50 | 35.25582 | -114.27033 | 39765 ft | 342 kts | 246° |
| 2026-04-25 23:51 | 35.23728 | -114.32398 | 39734 ft | 338 kts | 246° |
| 2026-04-25 23:51 | 35.21909 | -114.37654 | 39704 ft | 334 kts | 246° |
| 2026-04-25 23:52 | 35.20095 | -114.42886 | 39708 ft | 343 kts | 246° |
| 2026-04-25 23:52 | 35.18204 | -114.48327 | 39715 ft | 352 kts | 246° |
| 2026-04-25 23:53 | 35.16269 | -114.53887 | 39725 ft | 360 kts | 246° |
| 2026-04-25 23:53 | 35.14294 | -114.59552 | 39727 ft | 365 kts | 246° |
| 2026-04-25 23:54 | 35.12320 | -114.65207 | 39729 ft | 358 kts | 246° |
| 2026-04-25 23:54 | 35.10389 | -114.70721 | 39723 ft | 348 kts | 246° |
| 2026-04-25 23:55 | 35.08509 | -114.76086 | 39543 ft | 336 kts | 246° |
| 2026-04-25 23:55 | 35.07585 | -114.78721 | 38541 ft | 340 kts | 245° |
| 2026-04-25 23:55 | 35.06649 | -114.81386 | 37507 ft | 344 kts | 245° |
| 2026-04-25 23:55 | 35.05707 | -114.84068 | 36754 ft | 343 kts | 245° |
| 2026-04-25 23:56 | 35.04764 | -114.86752 | 35925 ft | 345 kts | 245° |
| 2026-04-25 23:56 | 35.03809 | -114.89454 | 35059 ft | 348 kts | 245° |
| 2026-04-25 23:56 | 35.02849 | -114.92180 | 34192 ft | 351 kts | 245° |
| 2026-04-25 23:56 | 35.01880 | -114.94914 | 33245 ft | 353 kts | 244° |
| 2026-04-25 23:57 | 35.00635 | -114.97526 | 32054 ft | 360 kts | 238° |
| 2026-04-25 23:57 | 34.99458 | -115.00268 | 30774 ft | 370 kts | 244° |
| 2026-04-25 23:57 | 34.98330 | -115.03130 | 29531 ft | 379 kts | 242° |
| 2026-04-25 23:57 | 34.97074 | -115.05979 | 28176 ft | 383 kts | 240° |
| 2026-04-25 23:58 | 34.95770 | -115.08833 | 26887 ft | 387 kts | 240° |
| 2026-04-25 23:58 | 34.94502 | -115.11711 | 25936 ft | 383 kts | 241° |
| 2026-04-25 23:58 | 34.93263 | -115.14554 | 25035 ft | 377 kts | 241° |
| 2026-04-25 23:58 | 34.92021 | -115.17394 | 23943 ft | 380 kts | 241° |
| 2026-04-25 23:59 | 34.90769 | -115.20208 | 23121 ft | 375 kts | 241° |
| 2026-04-25 23:59 | 34.89540 | -115.22996 | 22170 ft | 371 kts | 241° |
| 2026-04-25 23:59 | 34.88321 | -115.25751 | 21288 ft | 367 kts | 241° |
| 2026-04-25 23:59 | 34.87124 | -115.28473 | 20460 ft | 364 kts | 241° |
| 2026-04-26 00:00 | 34.85938 | -115.31138 | 19688 ft | 361 kts | 240° |
| 2026-04-26 00:00 | 34.84750 | -115.33823 | 18961 ft | 358 kts | 240° |
| 2026-04-26 00:00 | 34.83583 | -115.36455 | 18712 ft | 345 kts | 240° |
| 2026-04-26 00:00 | 34.82479 | -115.38961 | 18707 ft | 328 kts | 240° |
| 2026-04-26 00:01 | 34.81398 | -115.41381 | 18699 ft | 335 kts | 240° |
| 2026-04-26 00:01 | 34.80233 | -115.44004 | 18701 ft | 361 kts | 240° |
| 2026-04-26 00:01 | 34.79065 | -115.46690 | 18703 ft | 359 kts | 243° |
| 2026-04-26 00:01 | 34.78081 | -115.49476 | 18704 ft | 359 kts | 245° |
| 2026-04-26 00:02 | 34.77057 | -115.52248 | 18704 ft | 359 kts | 244° |
| 2026-04-26 00:02 | 34.76029 | -115.55017 | 18707 ft | 359 kts | 244° |
| 2026-04-26 00:02 | 34.75006 | -115.57781 | 18706 ft | 359 kts | 244° |
| 2026-04-26 00:02 | 34.73994 | -115.60564 | 18703 ft | 360 kts | 244° |
| 2026-04-26 00:03 | 34.72966 | -115.63334 | 18706 ft | 359 kts | 244° |
| 2026-04-26 00:03 | 34.71940 | -115.66108 | 18703 ft | 360 kts | 244° |
| 2026-04-26 00:03 | 34.70923 | -115.68890 | 18702 ft | 360 kts | 244° |
| 2026-04-26 00:03 | 34.69902 | -115.71649 | 18973 ft | 353 kts | 244° |
| 2026-04-26 00:04 | 34.68889 | -115.74378 | 19383 ft | 358 kts | 244° |
| 2026-04-26 00:04 | 34.67868 | -115.77139 | 19787 ft | 366 kts | 244° |
| 2026-04-26 00:04 | 34.66832 | -115.79944 | 20205 ft | 361 kts | 244° |
| 2026-04-26 00:04 | 34.65792 | -115.82743 | 20629 ft | 357 kts | 244° |
| 2026-04-26 00:05 | 34.64781 | -115.85481 | 21058 ft | 353 kts | 244° |
| 2026-04-26 00:05 | 34.63772 | -115.88184 | 21492 ft | 350 kts | 244° |
| 2026-04-26 00:05 | 34.62777 | -115.90869 | 21933 ft | 347 kts | 244° |
| 2026-04-26 00:05 | 34.61793 | -115.93544 | 22377 ft | 350 kts | 244° |
| 2026-04-26 00:06 | 34.60791 | -115.96278 | 22847 ft | 359 kts | 244° |
| 2026-04-26 00:06 | 34.59765 | -115.99052 | 23303 ft | 360 kts | 244° |
| 2026-04-26 00:06 | 34.58742 | -116.01826 | 23616 ft | 361 kts | 244° |
| 2026-04-26 00:06 | 34.57705 | -116.04630 | 23696 ft | 367 kts | 244° |
| 2026-04-26 00:07 | 34.56676 | -116.07420 | 23709 ft | 366 kts | 244° |
| 2026-04-26 00:07 | 34.55635 | -116.10233 | 23709 ft | 365 kts | 244° |
| 2026-04-26 00:07 | 34.54598 | -116.13035 | 23712 ft | 364 kts | 244° |
| 2026-04-26 00:07 | 34.53554 | -116.15836 | 23722 ft | 364 kts | 244° |
| 2026-04-26 00:08 | 34.52524 | -116.18639 | 23717 ft | 363 kts | 244° |
| 2026-04-26 00:08 | 34.51485 | -116.21429 | 23718 ft | 363 kts | 244° |
| 2026-04-26 00:08 | 34.50452 | -116.24212 | 23725 ft | 361 kts | 244° |
| 2026-04-26 00:08 | 34.49413 | -116.26987 | 23740 ft | 362 kts | 244° |
| 2026-04-26 00:09 | 34.48383 | -116.29772 | 23744 ft | 362 kts | 244° |
| 2026-04-26 00:09 | 34.47342 | -116.32554 | 23743 ft | 362 kts | 244° |
| 2026-04-26 00:09 | 34.46660 | -116.34395 | 23745 ft | 360 kts | 244° |
| 2026-04-26 00:09 | 34.45654 | -116.37088 | 23741 ft | 342 kts | 243° |
| 2026-04-26 00:10 | 34.44699 | -116.39659 | 23753 ft | 331 kts | 243° |
| 2026-04-26 00:10 | 34.43730 | -116.42223 | 23737 ft | 338 kts | 244° |
| 2026-04-26 00:10 | 34.42764 | -116.44827 | 23752 ft | 340 kts | 244° |
| 2026-04-26 00:10 | 34.41777 | -116.47423 | 23757 ft | 340 kts | 243° |
| 2026-04-26 00:11 | 34.40742 | -116.50007 | 23764 ft | 342 kts | 242° |
| 2026-04-26 00:11 | 34.39679 | -116.52588 | 23788 ft | 343 kts | 242° |
| 2026-04-26 00:11 | 34.38609 | -116.55171 | 23788 ft | 344 kts | 242° |
| 2026-04-26 00:11 | 34.37547 | -116.57770 | 23789 ft | 344 kts | 242° |
| 2026-04-26 00:12 | 34.36475 | -116.60361 | 23806 ft | 344 kts | 242° |
| 2026-04-26 00:12 | 34.35409 | -116.62956 | 23811 ft | 344 kts | 241° |
| 2026-04-26 00:12 | 34.34336 | -116.65540 | 23810 ft | 344 kts | 241° |
| 2026-04-26 00:12 | 34.33268 | -116.68137 | 23811 ft | 344 kts | 241° |
| 2026-04-26 00:13 | 34.32214 | -116.70731 | 23813 ft | 344 kts | 242° |
| 2026-04-26 00:13 | 34.31178 | -116.73356 | 23659 ft | 343 kts | 242° |
| 2026-04-26 00:13 | 34.30165 | -116.75871 | 23445 ft | 324 kts | 242° |
| 2026-04-26 00:13 | 34.29211 | -116.78264 | 23172 ft | 309 kts | 242° |
| 2026-04-26 00:14 | 34.28279 | -116.80555 | 22895 ft | 300 kts | 241° |
| 2026-04-26 00:14 | 34.27382 | -116.82781 | 22626 ft | 297 kts | 242° |
| 2026-04-26 00:14 | 34.26478 | -116.85013 | 22349 ft | 294 kts | 241° |
| 2026-04-26 00:14 | 34.25588 | -116.87234 | 22081 ft | 293 kts | 242° |
| 2026-04-26 00:15 | 34.24696 | -116.89442 | 21867 ft | 290 kts | 240° |
| 2026-04-26 00:15 | 34.23805 | -116.91628 | 21524 ft | 291 kts | 241° |
| 2026-04-26 00:15 | 34.22918 | -116.93835 | 21142 ft | 294 kts | 241° |
| 2026-04-26 00:15 | 34.22019 | -116.96062 | 20754 ft | 296 kts | 242° |
| 2026-04-26 00:16 | 34.21118 | -116.98311 | 20366 ft | 299 kts | 243° |
| 2026-04-26 00:16 | 34.20486 | -117.00734 | 19979 ft | 305 kts | 250° |
| 2026-04-26 00:16 | 34.19815 | -117.03173 | 19575 ft | 305 kts | 247° |
| 2026-04-26 00:16 | 34.19129 | -117.05603 | 19180 ft | 307 kts | 249° |
| 2026-04-26 00:17 | 34.18473 | -117.08072 | 18775 ft | 309 kts | 248° |
| 2026-04-26 00:17 | 34.17805 | -117.10540 | 18360 ft | 311 kts | 249° |
| 2026-04-26 00:17 | 34.17130 | -117.13046 | 17933 ft | 313 kts | 248° |
| 2026-04-26 00:17 | 34.16455 | -117.15511 | 17505 ft | 313 kts | 248° |
| 2026-04-26 00:18 | 34.15781 | -117.18015 | 17112 ft | 313 kts | 248° |
| 2026-04-26 00:18 | 34.15087 | -117.20481 | 16972 ft | 306 kts | 248° |
| 2026-04-26 00:18 | 34.14428 | -117.22873 | 16947 ft | 295 kts | 249° |
| 2026-04-26 00:18 | 34.13802 | -117.25193 | 16943 ft | 286 kts | 248° |
| 2026-04-26 00:19 | 34.13180 | -117.27436 | 16980 ft | 278 kts | 248° |
| 2026-04-26 00:19 | 34.12567 | -117.29650 | 16727 ft | 280 kts | 248° |
| 2026-04-26 00:19 | 34.11943 | -117.31903 | 16393 ft | 284 kts | 248° |
| 2026-04-26 00:19 | 34.11317 | -117.34175 | 16066 ft | 287 kts | 248° |
| 2026-04-26 00:20 | 34.10684 | -117.36465 | 15741 ft | 289 kts | 248° |
| 2026-04-26 00:20 | 34.10090 | -117.38828 | 15382 ft | 291 kts | 250° |
| 2026-04-26 00:20 | 34.09495 | -117.41184 | 14918 ft | 295 kts | 249° |
| 2026-04-26 00:20 | 34.08900 | -117.43537 | 14470 ft | 299 kts | 250° |
| 2026-04-26 00:21 | 34.08290 | -117.45960 | 14042 ft | 297 kts | 249° |
| 2026-04-26 00:21 | 34.07698 | -117.48336 | 13597 ft | 295 kts | 250° |
| 2026-04-26 00:21 | 34.07104 | -117.50694 | 13096 ft | 294 kts | 250° |
| 2026-04-26 00:21 | 34.06498 | -117.53044 | 12604 ft | 293 kts | 250° |
| 2026-04-26 00:22 | 34.05876 | -117.55387 | 12146 ft | 294 kts | 250° |
| 2026-04-26 00:22 | 34.05242 | -117.57700 | 11951 ft | 287 kts | 249° |
| 2026-04-26 00:22 | 34.04609 | -117.59961 | 11577 ft | 279 kts | 249° |
| 2026-04-26 00:22 | 34.03988 | -117.62127 | 11199 ft | 268 kts | 248° |
| 2026-04-26 00:23 | 34.03379 | -117.64213 | 10811 ft | 260 kts | 248° |
| 2026-04-26 00:23 | 34.02767 | -117.66241 | 10457 ft | 255 kts | 248° |
| 2026-04-26 00:23 | 34.02327 | -117.68297 | 10092 ft | 254 kts | 261° |
| 2026-04-26 00:23 | 34.02152 | -117.70377 | 9713 ft | 250 kts | 250° |
| 2026-04-26 00:24 | 34.01530 | -117.72310 | 9311 ft | 249 kts | 253° |
| 2026-04-26 00:24 | 34.01374 | -117.74388 | 8924 ft | 251 kts | 267° |
| 2026-04-26 00:24 | 34.01299 | -117.76497 | 8528 ft | 248 kts | 262° |
| 2026-04-26 00:24 | 34.01051 | -117.78516 | 8214 ft | 246 kts | 258° |
| 2026-04-26 00:25 | 34.00759 | -117.80545 | 7933 ft | 246 kts | 258° |
| 2026-04-26 00:25 | 34.00487 | -117.82569 | 7641 ft | 244 kts | 259° |
| 2026-04-26 00:25 | 34.00218 | -117.84579 | 7373 ft | 242 kts | 258° |
| 2026-04-26 00:25 | 33.99950 | -117.86577 | 7100 ft | 240 kts | 260° |
| 2026-04-26 00:26 | 33.99697 | -117.88510 | 6828 ft | 225 kts | 258° |
| 2026-04-26 00:26 | 33.99458 | -117.90324 | 6538 ft | 214 kts | 259° |
| 2026-04-26 00:26 | 33.99219 | -117.92054 | 6254 ft | 206 kts | 259° |
| 2026-04-26 00:26 | 33.98960 | -117.93709 | 6059 ft | 194 kts | 258° |
| 2026-04-26 00:27 | 33.98720 | -117.95254 | 6003 ft | 184 kts | 258° |
| 2026-04-26 00:27 | 33.98492 | -117.96737 | 5903 ft | 177 kts | 258° |
| 2026-04-26 00:27 | 33.98266 | -117.98193 | 5732 ft | 176 kts | 257° |
| 2026-04-26 00:27 | 33.98050 | -117.99633 | 5572 ft | 174 kts | 257° |
| 2026-04-26 00:28 | 33.97827 | -118.01058 | 5408 ft | 173 kts | 258° |
| 2026-04-26 00:28 | 33.97607 | -118.02495 | 5245 ft | 176 kts | 257° |
| 2026-04-26 00:28 | 33.97384 | -118.03954 | 5090 ft | 177 kts | 257° |
| 2026-04-26 00:28 | 33.97164 | -118.05394 | 5031 ft | 171 kts | 258° |
| 2026-04-26 00:29 | 33.96949 | -118.06775 | 5013 ft | 163 kts | 257° |
| 2026-04-26 00:29 | 33.96778 | -118.08129 | 4995 ft | 165 kts | 262° |
| 2026-04-26 00:29 | 33.96649 | -118.09502 | 4980 ft | 166 kts | 261° |
| 2026-04-26 00:29 | 33.96501 | -118.10937 | 4755 ft | 178 kts | 261° |
| 2026-04-26 00:30 | 33.96345 | -118.12458 | 4535 ft | 188 kts | 261° |
| 2026-04-26 00:30 | 33.96188 | -118.14056 | 4314 ft | 192 kts | 262° |
| 2026-04-26 00:30 | 33.96032 | -118.15611 | 4028 ft | 187 kts | 261° |
| 2026-04-26 00:30 | 33.95877 | -118.17148 | 3742 ft | 183 kts | 261° |
| 2026-04-26 00:31 | 33.95731 | -118.18647 | 3647 ft | 173 kts | 261° |
| 2026-04-26 00:31 | 33.95588 | -118.20015 | 3608 ft | 161 kts | 260° |
| 2026-04-26 00:31 | 33.95459 | -118.21328 | 3594 ft | 150 kts | 261° |
| 2026-04-26 00:31 | 33.95336 | -118.22534 | 3527 ft | 146 kts | 262° |
| 2026-04-26 00:32 | 33.95209 | -118.23771 | 3192 ft | 157 kts | 261° |
| 2026-04-26 00:32 | 33.95070 | -118.25152 | 2687 ft | 173 kts | 262° |
| 2026-04-26 00:32 | 33.94773 | -118.28110 | 1936 ft | 173 kts | 261° |
| 2026-04-26 00:33 | 33.94646 | -118.29494 | 1866 ft | 150 kts | 262° |
| 2026-04-26 00:33 | 33.94537 | -118.30686 | 1659 ft | 139 kts | 261° |
| 2026-04-26 00:33 | 33.94404 | -118.31858 | 1306 ft | 140 kts | 261° |
| 2026-04-26 00:33 | 33.94267 | -118.32955 | 1075 ft | 126 kts | 262° |
| 2026-04-26 00:34 | 33.94198 | -118.33937 | 951 ft | 109 kts | 264° |
| 2026-04-26 00:34 | 33.94125 | -118.34812 | 811 ft | 102 kts | 259° |
| 2026-04-26 00:34 | 33.94012 | -118.35647 | 599 ft | 94 kts | 262° |
| 2026-04-26 00:34 | 33.93922 | -118.36422 | 453 ft | 94 kts | 263° |
| 2026-04-26 00:35 | 33.93845 | -118.37184 | 332 ft | 90 kts | 263° |
| 2026-04-26 00:35 | 33.93769 | -118.37912 | 221 ft | 86 kts | 263° |
| 2026-04-26 00:35 | 33.93699 | -118.38611 | 130 ft | 81 kts | 263° |
| 2026-04-26 00:35 | 33.93643 | -118.39193 | 119 ft | 59 kts | 263° |
| 2026-04-26 00:36 | 33.93603 | -118.39572 | 119 ft | 38 kts | 263° |
| 2026-04-26 00:36 | 33.93578 | -118.39819 | 117 ft | 26 kts | 262° |
| 2026-04-26 00:36 | 33.93551 | -118.40013 | 119 ft | 22 kts | 256° |
| 2026-04-26 00:36 | 33.93504 | -118.40166 | 117 ft | 15 kts | 242° |
| 2026-04-26 00:37 | 33.93456 | -118.40201 | 119 ft | 8 kts | 170° |
| 2026-04-26 00:37 | 33.93448 | -118.40198 | 119 ft | 0 kts | 158° |
| 2026-04-26 00:38 | 33.93434 | -118.40188 | 119 ft | 7 kts | 142° |
| 2026-04-26 00:38 | 33.93370 | -118.40139 | 119 ft | 8 kts | 185° |
| 2026-04-26 00:38 | 33.93322 | -118.40137 | 117 ft | 0 kts | 174° |